<?xml version="1.0" encoding="UTF-8" standalone="no" ?>
<gpx xmlns="http://www.topografix.com/GPX/1/1" xmlns:xsi="http://www.w3.org/2001/XMLSchema-instance" xsi:schemaLocation="http://www.topografix.com/GPX/1/1 http://www.topografix.com/GPX/1/1/gpx.xsd" version="1.1" creator="VisuGPX - https://www.visugpx.com">
  <metadata>
    <name>boucles beaumont</name>
    <desc><![CDATA[boucles beaumont du périgord]]></desc>
  </metadata>
  <trk>
    <name><![CDATA[BBmt02]]></name>
    <trkseg>
      <trkpt lat="44.79401" lon="0.74734">
        <ele>80</ele>
        <time>2008-12-08T14:18:40Z</time>
      </trkpt>
      <trkpt lat="44.79385" lon="0.7472">
        <ele>81</ele>
        <time>2008-12-08T14:18:48Z</time>
      </trkpt>
      <trkpt lat="44.79368" lon="0.74705">
        <ele>83</ele>
        <time>2008-12-08T14:18:51Z</time>
      </trkpt>
      <trkpt lat="44.79345" lon="0.74688">
        <ele>87</ele>
        <time>2008-12-08T14:18:54Z</time>
      </trkpt>
      <trkpt lat="44.79328" lon="0.74675">
        <ele>89</ele>
        <time>2008-12-08T14:18:56Z</time>
      </trkpt>
      <trkpt lat="44.79298" lon="0.7466">
        <ele>91</ele>
        <time>2008-12-08T14:18:59Z</time>
      </trkpt>
      <trkpt lat="44.79278" lon="0.7465">
        <ele>91</ele>
        <time>2008-12-08T14:19:01Z</time>
      </trkpt>
      <trkpt lat="44.79258" lon="0.7464">
        <ele>94</ele>
        <time>2008-12-08T14:19:03Z</time>
      </trkpt>
      <trkpt lat="44.79225" lon="0.74628">
        <ele>97</ele>
        <time>2008-12-08T14:19:06Z</time>
      </trkpt>
      <trkpt lat="44.79208" lon="0.7462">
        <ele>99</ele>
        <time>2008-12-08T14:19:08Z</time>
      </trkpt>
      <trkpt lat="44.79195" lon="0.74615">
        <ele>103</ele>
        <time>2008-12-08T14:19:26Z</time>
      </trkpt>
      <trkpt lat="44.79185" lon="0.7464">
        <ele>105</ele>
        <time>2008-12-08T14:20:09Z</time>
      </trkpt>
      <trkpt lat="44.79173" lon="0.7466">
        <ele>105</ele>
        <time>2008-12-08T14:20:15Z</time>
      </trkpt>
      <trkpt lat="44.79158" lon="0.74678">
        <ele>101</ele>
        <time>2008-12-08T14:20:22Z</time>
      </trkpt>
      <trkpt lat="44.79148" lon="0.747">
        <ele>103</ele>
        <time>2008-12-08T14:20:28Z</time>
      </trkpt>
      <trkpt lat="44.79138" lon="0.74728">
        <ele>110</ele>
        <time>2008-12-08T14:20:35Z</time>
      </trkpt>
      <trkpt lat="44.79128" lon="0.74753">
        <ele>113</ele>
        <time>2008-12-08T14:20:41Z</time>
      </trkpt>
      <trkpt lat="44.79113" lon="0.74773">
        <ele>115</ele>
        <time>2008-12-08T14:20:47Z</time>
      </trkpt>
      <trkpt lat="44.79095" lon="0.7478">
        <ele>118</ele>
        <time>2008-12-08T14:20:53Z</time>
      </trkpt>
      <trkpt lat="44.79078" lon="0.74788">
        <ele>121</ele>
        <time>2008-12-08T14:20:58Z</time>
      </trkpt>
      <trkpt lat="44.79058" lon="0.74798">
        <ele>120</ele>
        <time>2008-12-08T14:21:03Z</time>
      </trkpt>
      <trkpt lat="44.7904" lon="0.74813">
        <ele>120</ele>
        <time>2008-12-08T14:21:08Z</time>
      </trkpt>
      <trkpt lat="44.79023" lon="0.74828">
        <ele>122</ele>
        <time>2008-12-08T14:21:14Z</time>
      </trkpt>
      <trkpt lat="44.79008" lon="0.74843">
        <ele>127</ele>
        <time>2008-12-08T14:21:37Z</time>
      </trkpt>
      <trkpt lat="44.7899" lon="0.74853">
        <ele>130</ele>
        <time>2008-12-08T14:21:44Z</time>
      </trkpt>
      <trkpt lat="44.78973" lon="0.7486">
        <ele>130</ele>
        <time>2008-12-08T14:21:49Z</time>
      </trkpt>
      <trkpt lat="44.78955" lon="0.74875">
        <ele>130</ele>
        <time>2008-12-08T14:21:57Z</time>
      </trkpt>
      <trkpt lat="44.78935" lon="0.74888">
        <ele>128</ele>
        <time>2008-12-08T14:22:03Z</time>
      </trkpt>
      <trkpt lat="44.78915" lon="0.74898">
        <ele>127</ele>
        <time>2008-12-08T14:22:09Z</time>
      </trkpt>
      <trkpt lat="44.78898" lon="0.74913">
        <ele>125</ele>
        <time>2008-12-08T14:22:15Z</time>
      </trkpt>
      <trkpt lat="44.7888" lon="0.74928">
        <ele>123</ele>
        <time>2008-12-08T14:22:21Z</time>
      </trkpt>
      <trkpt lat="44.78865" lon="0.74943">
        <ele>124</ele>
        <time>2008-12-08T14:22:27Z</time>
      </trkpt>
      <trkpt lat="44.7885" lon="0.74958">
        <ele>123</ele>
        <time>2008-12-08T14:22:32Z</time>
      </trkpt>
      <trkpt lat="44.78835" lon="0.74973">
        <ele>122</ele>
        <time>2008-12-08T14:22:38Z</time>
      </trkpt>
      <trkpt lat="44.78818" lon="0.74985">
        <ele>121</ele>
        <time>2008-12-08T14:22:44Z</time>
      </trkpt>
      <trkpt lat="44.78803" lon="0.75">
        <ele>120</ele>
        <time>2008-12-08T14:22:51Z</time>
      </trkpt>
      <trkpt lat="44.78783" lon="0.75008">
        <ele>118</ele>
        <time>2008-12-08T14:22:57Z</time>
      </trkpt>
      <trkpt lat="44.78763" lon="0.75013">
        <ele>117</ele>
        <time>2008-12-08T14:23:03Z</time>
      </trkpt>
      <trkpt lat="44.7874" lon="0.75018">
        <ele>115</ele>
        <time>2008-12-08T14:23:09Z</time>
      </trkpt>
      <trkpt lat="44.7872" lon="0.7502">
        <ele>114</ele>
        <time>2008-12-08T14:23:16Z</time>
      </trkpt>
      <trkpt lat="44.787" lon="0.75028">
        <ele>111</ele>
        <time>2008-12-08T14:23:21Z</time>
      </trkpt>
      <trkpt lat="44.7868" lon="0.7504">
        <ele>109</ele>
        <time>2008-12-08T14:23:26Z</time>
      </trkpt>
      <trkpt lat="44.7866" lon="0.75055">
        <ele>107</ele>
        <time>2008-12-08T14:23:31Z</time>
      </trkpt>
      <trkpt lat="44.7864" lon="0.7507">
        <ele>106</ele>
        <time>2008-12-08T14:23:36Z</time>
      </trkpt>
      <trkpt lat="44.78623" lon="0.75078">
        <ele>103</ele>
        <time>2008-12-08T14:23:42Z</time>
      </trkpt>
      <trkpt lat="44.78608" lon="0.75063">
        <ele>103</ele>
        <time>2008-12-08T14:23:49Z</time>
      </trkpt>
      <trkpt lat="44.7859" lon="0.75053">
        <ele>106</ele>
        <time>2008-12-08T14:23:56Z</time>
      </trkpt>
      <trkpt lat="44.78573" lon="0.75045">
        <ele>106</ele>
        <time>2008-12-08T14:24:01Z</time>
      </trkpt>
      <trkpt lat="44.78555" lon="0.75035">
        <ele>103</ele>
        <time>2008-12-08T14:24:06Z</time>
      </trkpt>
      <trkpt lat="44.78535" lon="0.7502">
        <ele>100</ele>
        <time>2008-12-08T14:24:11Z</time>
      </trkpt>
      <trkpt lat="44.7852" lon="0.75003">
        <ele>99</ele>
        <time>2008-12-08T14:24:16Z</time>
      </trkpt>
      <trkpt lat="44.7851" lon="0.7498">
        <ele>97</ele>
        <time>2008-12-08T14:24:23Z</time>
      </trkpt>
      <trkpt lat="44.785" lon="0.75005">
        <ele>103</ele>
        <time>2008-12-08T14:24:44Z</time>
      </trkpt>
      <trkpt lat="44.785" lon="0.75035">
        <ele>98</ele>
        <time>2008-12-08T14:24:50Z</time>
      </trkpt>
      <trkpt lat="44.78508" lon="0.7506">
        <ele>94</ele>
        <time>2008-12-08T14:24:56Z</time>
      </trkpt>
      <trkpt lat="44.78513" lon="0.7509">
        <ele>89</ele>
        <time>2008-12-08T14:25:02Z</time>
      </trkpt>
      <trkpt lat="44.78513" lon="0.7512">
        <ele>85</ele>
        <time>2008-12-08T14:25:09Z</time>
      </trkpt>
      <trkpt lat="44.78518" lon="0.75145">
        <ele>86</ele>
        <time>2008-12-08T14:25:25Z</time>
      </trkpt>
      <trkpt lat="44.78525" lon="0.75173">
        <ele>85</ele>
        <time>2008-12-08T14:25:31Z</time>
      </trkpt>
      <trkpt lat="44.78525" lon="0.752">
        <ele>87</ele>
        <time>2008-12-08T14:25:46Z</time>
      </trkpt>
      <trkpt lat="44.78535" lon="0.75223">
        <ele>89</ele>
        <time>2008-12-08T14:25:52Z</time>
      </trkpt>
      <trkpt lat="44.78545" lon="0.75245">
        <ele>92</ele>
        <time>2008-12-08T14:25:58Z</time>
      </trkpt>
      <trkpt lat="44.78553" lon="0.7527">
        <ele>93</ele>
        <time>2008-12-08T14:26:04Z</time>
      </trkpt>
      <trkpt lat="44.78563" lon="0.75293">
        <ele>94</ele>
        <time>2008-12-08T14:26:10Z</time>
      </trkpt>
      <trkpt lat="44.78578" lon="0.75308">
        <ele>97</ele>
        <time>2008-12-08T14:26:16Z</time>
      </trkpt>
      <trkpt lat="44.78573" lon="0.75338">
        <ele>94</ele>
        <time>2008-12-08T14:26:30Z</time>
      </trkpt>
      <trkpt lat="44.78563" lon="0.75365">
        <ele>91</ele>
        <time>2008-12-08T14:26:35Z</time>
      </trkpt>
      <trkpt lat="44.7856" lon="0.75395">
        <ele>89</ele>
        <time>2008-12-08T14:26:39Z</time>
      </trkpt>
      <trkpt lat="44.78555" lon="0.7542">
        <ele>86</ele>
        <time>2008-12-08T14:26:42Z</time>
      </trkpt>
      <trkpt lat="44.78545" lon="0.7545">
        <ele>82</ele>
        <time>2008-12-08T14:26:46Z</time>
      </trkpt>
      <trkpt lat="44.78535" lon="0.75478">
        <ele>81</ele>
        <time>2008-12-08T14:26:49Z</time>
      </trkpt>
      <trkpt lat="44.78523" lon="0.75503">
        <ele>78</ele>
        <time>2008-12-08T14:26:52Z</time>
      </trkpt>
      <trkpt lat="44.78505" lon="0.75513">
        <ele>75</ele>
        <time>2008-12-08T14:26:55Z</time>
      </trkpt>
      <trkpt lat="44.785" lon="0.75543">
        <ele>72</ele>
        <time>2008-12-08T14:26:58Z</time>
      </trkpt>
      <trkpt lat="44.78515" lon="0.75563">
        <ele>70</ele>
        <time>2008-12-08T14:27:03Z</time>
      </trkpt>
      <trkpt lat="44.78535" lon="0.75558">
        <ele>75</ele>
        <time>2008-12-08T14:27:12Z</time>
      </trkpt>
      <trkpt lat="44.78515" lon="0.7557">
        <ele>71</ele>
        <time>2008-12-08T14:27:23Z</time>
      </trkpt>
      <trkpt lat="44.78493" lon="0.75563">
        <ele>70</ele>
        <time>2008-12-08T14:27:27Z</time>
      </trkpt>
      <trkpt lat="44.78483" lon="0.75538">
        <ele>70</ele>
        <time>2008-12-08T14:27:30Z</time>
      </trkpt>
      <trkpt lat="44.78468" lon="0.7551">
        <ele>67</ele>
        <time>2008-12-08T14:27:33Z</time>
      </trkpt>
      <trkpt lat="44.7845" lon="0.75498">
        <ele>68</ele>
        <time>2008-12-08T14:27:36Z</time>
      </trkpt>
      <trkpt lat="44.78433" lon="0.75488">
        <ele>70</ele>
        <time>2008-12-08T14:27:39Z</time>
      </trkpt>
      <trkpt lat="44.78418" lon="0.75465">
        <ele>69</ele>
        <time>2008-12-08T14:27:43Z</time>
      </trkpt>
      <trkpt lat="44.78405" lon="0.75443">
        <ele>69</ele>
        <time>2008-12-08T14:27:46Z</time>
      </trkpt>
      <trkpt lat="44.78393" lon="0.75415">
        <ele>68</ele>
        <time>2008-12-08T14:27:49Z</time>
      </trkpt>
      <trkpt lat="44.78378" lon="0.75383">
        <ele>68</ele>
        <time>2008-12-08T14:27:52Z</time>
      </trkpt>
      <trkpt lat="44.78365" lon="0.7536">
        <ele>68</ele>
        <time>2008-12-08T14:27:54Z</time>
      </trkpt>
      <trkpt lat="44.7835" lon="0.75328">
        <ele>70</ele>
        <time>2008-12-08T14:27:57Z</time>
      </trkpt>
      <trkpt lat="44.7834" lon="0.75303">
        <ele>71</ele>
        <time>2008-12-08T14:27:59Z</time>
      </trkpt>
      <trkpt lat="44.78335" lon="0.75278">
        <ele>72</ele>
        <time>2008-12-08T14:28:01Z</time>
      </trkpt>
      <trkpt lat="44.78325" lon="0.7524">
        <ele>73</ele>
        <time>2008-12-08T14:28:04Z</time>
      </trkpt>
      <trkpt lat="44.78313" lon="0.75218">
        <ele>73</ele>
        <time>2008-12-08T14:28:06Z</time>
      </trkpt>
      <trkpt lat="44.78293" lon="0.75188">
        <ele>74</ele>
        <time>2008-12-08T14:28:09Z</time>
      </trkpt>
      <trkpt lat="44.78273" lon="0.75165">
        <ele>77</ele>
        <time>2008-12-08T14:28:12Z</time>
      </trkpt>
      <trkpt lat="44.7825" lon="0.7515">
        <ele>77</ele>
        <time>2008-12-08T14:28:15Z</time>
      </trkpt>
      <trkpt lat="44.7823" lon="0.75145">
        <ele>78</ele>
        <time>2008-12-08T14:28:18Z</time>
      </trkpt>
      <trkpt lat="44.78205" lon="0.75148">
        <ele>80</ele>
        <time>2008-12-08T14:28:30Z</time>
      </trkpt>
      <trkpt lat="44.78183" lon="0.7515">
        <ele>80</ele>
        <time>2008-12-08T14:28:33Z</time>
      </trkpt>
      <trkpt lat="44.78155" lon="0.75153">
        <ele>79</ele>
        <time>2008-12-08T14:28:36Z</time>
      </trkpt>
      <trkpt lat="44.78128" lon="0.75148">
        <ele>79</ele>
        <time>2008-12-08T14:28:39Z</time>
      </trkpt>
      <trkpt lat="44.78098" lon="0.75143">
        <ele>79</ele>
        <time>2008-12-08T14:28:42Z</time>
      </trkpt>
      <trkpt lat="44.78075" lon="0.7514">
        <ele>80</ele>
        <time>2008-12-08T14:28:44Z</time>
      </trkpt>
      <trkpt lat="44.78048" lon="0.75133">
        <ele>81</ele>
        <time>2008-12-08T14:28:47Z</time>
      </trkpt>
      <trkpt lat="44.78028" lon="0.7513">
        <ele>82</ele>
        <time>2008-12-08T14:28:49Z</time>
      </trkpt>
      <trkpt lat="44.78005" lon="0.75133">
        <ele>82</ele>
        <time>2008-12-08T14:28:53Z</time>
      </trkpt>
    </trkseg>
  </trk>
</gpx>